createdAt,value
2022-08-06T00:00:07.218Z,20.62
2022-08-06T00:02:35.637Z,20.68
2022-08-06T00:05:06.501Z,20.74
2022-08-06T00:07:44.787Z,20.73
2022-08-06T00:10:16.790Z,20.76
2022-08-06T00:12:45.007Z,20.82
2022-08-06T00:15:14.568Z,20.69
2022-08-06T00:17:45.870Z,20.71
2022-08-06T00:20:25.312Z,20.78
2022-08-06T00:22:59.860Z,20.75
2022-08-06T00:25:27.319Z,20.69
2022-08-06T00:27:54.899Z,20.75
2022-08-06T00:30:22.398Z,20.77
2022-08-06T00:32:52.035Z,20.76
2022-08-06T00:35:23.768Z,20.66
2022-08-06T00:37:58.461Z,20.75
2022-08-06T00:40:29.594Z,20.76
2022-08-06T00:43:02.486Z,20.80
2022-08-06T00:45:37.946Z,20.71
2022-08-06T00:48:09.095Z,20.93
2022-08-06T00:50:55.996Z,20.56
2022-08-06T00:53:22.778Z,20.53
2022-08-06T00:55:59.653Z,20.46
2022-08-06T00:58:28.481Z,20.44
2022-08-06T01:01:07.661Z,20.42
2022-08-06T01:03:50.827Z,20.27
2022-08-06T01:06:57.542Z,20.22
2022-08-06T01:09:05.302Z,20.29
2022-08-06T01:11:34.862Z,20.42
2022-08-06T01:14:05.913Z,20.37
2022-08-06T01:16:46.283Z,20.35
2022-08-06T01:21:20.135Z,20.43
2022-08-06T01:22:41.325Z,20.41
2022-08-06T01:25:47.622Z,20.31
2022-08-06T01:28:59.688Z,20.24
2022-08-06T01:31:52.406Z,20.24
2022-08-06T01:34:31.415Z,20.25
2022-08-06T01:37:22.588Z,20.17
2022-08-06T01:40:02.609Z,20.17
2022-08-06T01:42:35.711Z,20.23
2022-08-06T01:45:05.854Z,20.26
2022-08-06T01:47:52.388Z,20.27
2022-08-06T01:50:28.068Z,20.27
2022-08-06T01:52:59.814Z,20.29
2022-08-06T01:55:42.234Z,20.33
2022-08-06T01:58:29.281Z,20.25
2022-08-06T02:01:01.160Z,20.32
2022-08-06T02:03:38.851Z,20.40
2022-08-06T02:06:23.376Z,20.34
2022-08-06T02:09:21.916Z,20.38
2022-08-06T02:12:02.546Z,20.34
2022-08-06T02:14:38.479Z,20.34
2022-08-06T02:17:13.477Z,20.31
2022-08-06T02:19:59.761Z,20.27
2022-08-06T02:22:38.057Z,20.29
2022-08-06T02:25:14.387Z,20.22
2022-08-06T02:27:53.389Z,20.29
2022-08-06T02:30:34.836Z,20.21
2022-08-06T02:33:05.282Z,20.22
2022-08-06T02:35:37.551Z,20.24
2022-08-06T02:38:28.509Z,20.31
2022-08-06T02:41:03.232Z,20.25
2022-08-06T02:43:36.304Z,20.20
2022-08-06T02:46:11.799Z,20.15
2022-08-06T02:48:47.342Z,20.20
2022-08-06T02:51:43.834Z,20.29
2022-08-06T02:54:15.226Z,20.32
2022-08-06T02:56:45.696Z,20.35
2022-08-06T02:59:21.404Z,20.34
2022-08-06T03:01:57.718Z,20.41
2022-08-06T03:04:32.302Z,20.45
2022-08-06T03:07:06.593Z,20.49
2022-08-06T03:09:53.070Z,20.46
2022-08-06T03:12:29.927Z,20.48
2022-08-06T03:15:06.146Z,20.48
2022-08-06T03:17:38.624Z,20.45
2022-08-06T03:20:08.610Z,20.52
2022-08-06T03:22:45.158Z,20.48
2022-08-06T03:25:15.273Z,20.42
2022-08-06T03:27:45.167Z,20.41
2022-08-06T03:30:31.371Z,20.41
2022-08-06T03:33:28.727Z,20.38
2022-08-06T03:36:01.032Z,20.45
2022-08-06T03:38:33.647Z,20.42
2022-08-06T03:41:01.818Z,20.33
2022-08-06T03:43:56.234Z,20.34
2022-08-06T03:46:22.478Z,20.32
2022-08-06T03:48:50.991Z,20.19
2022-08-06T03:51:51.079Z,20.14
2022-08-06T03:54:10.256Z,20.09
2022-08-06T03:56:46.415Z,20.09
2022-08-06T03:59:18.262Z,20.06
2022-08-06T04:01:50.294Z,20.01
2022-08-06T04:04:26.001Z,19.99
2022-08-06T04:06:56.325Z,20.01
2022-08-06T04:09:57.772Z,20.01
2022-08-06T04:12:42.776Z,20.10
2022-08-06T04:15:00.356Z,20.02
2022-08-06T04:17:32.948Z,20.00
2022-08-06T04:20:01.038Z,20.03
2022-08-06T04:23:05.484Z,19.89
2022-08-06T04:25:14.856Z,20.02
2022-08-06T04:27:52.953Z,20.03
2022-08-06T04:30:29.053Z,19.86
2022-08-06T04:33:00.305Z,19.95
2022-08-06T04:36:06.319Z,19.95
2022-08-06T04:38:27.989Z,20.02
2022-08-06T04:40:58.245Z,19.91
2022-08-06T04:43:38.273Z,19.99
2022-08-06T04:46:20.554Z,20.07
2022-08-06T04:48:50.900Z,20.03
2022-08-06T04:52:37.008Z,20.06
2022-08-06T04:54:12.374Z,20.07
2022-08-06T04:56:48.421Z,19.92
2022-08-06T04:59:17.540Z,19.86
2022-08-06T05:01:57.423Z,19.90
2022-08-06T05:04:32.473Z,19.85
2022-08-06T05:07:13.222Z,19.91
2022-08-06T05:09:43.910Z,19.72
2022-08-06T05:12:33.950Z,19.68
2022-08-06T05:15:11.787Z,19.71
2022-08-06T05:17:48.510Z,19.72
2022-08-06T05:20:27.937Z,19.77
2022-08-06T05:23:09.111Z,19.95
2022-08-06T05:25:52.564Z,19.94
2022-08-06T05:28:22.827Z,20.05
2022-08-06T05:30:55.513Z,19.94
2022-08-06T05:33:30.275Z,19.82
2022-08-06T05:36:01.660Z,19.76
2022-08-06T05:38:37.497Z,19.71
2022-08-06T05:41:08.744Z,19.89
2022-08-06T05:43:57.837Z,20.14
2022-08-06T05:46:30.046Z,20.33
2022-08-06T05:49:17.059Z,20.49
2022-08-06T05:52:14.545Z,20.58
2022-08-06T05:54:56.398Z,20.82
2022-08-06T05:57:33.498Z,20.94
2022-08-06T06:00:31.575Z,21.13
2022-08-06T06:03:02.420Z,21.17
2022-08-06T06:06:07.100Z,20.99
2022-08-06T06:08:38.050Z,21.14
2022-08-06T06:11:10.021Z,20.81
2022-08-06T06:13:39.846Z,20.55
2022-08-06T06:16:22.258Z,20.57
2022-08-06T06:19:24.921Z,20.57
2022-08-06T06:22:21.689Z,20.47
2022-08-06T06:25:00.639Z,20.55
2022-08-06T06:27:51.958Z,20.52
2022-08-06T06:30:53.007Z,20.61
2022-08-06T06:34:02.475Z,20.44
2022-08-06T06:36:47.478Z,20.46
2022-08-06T06:39:59.102Z,20.50
2022-08-06T06:42:35.837Z,20.64
2022-08-06T06:46:10.074Z,20.59
2022-08-06T06:48:32.947Z,20.68
2022-08-06T06:51:04.296Z,20.56
2022-08-06T06:54:09.193Z,20.75
2022-08-06T06:56:32.508Z,20.81
2022-08-06T06:59:05.628Z,20.63
2022-08-06T07:01:54.345Z,20.52
2022-08-06T07:04:26.971Z,20.34
2022-08-06T07:06:59.898Z,20.34
2022-08-06T07:09:40.433Z,20.19
2022-08-06T07:12:19.413Z,20.23
2022-08-06T07:15:00.539Z,20.19
2022-08-06T07:17:46.127Z,20.35
2022-08-06T07:20:26.257Z,20.55
2022-08-06T07:24:04.503Z,20.31
2022-08-06T07:25:54.529Z,20.34
2022-08-06T07:28:27.917Z,20.47
2022-08-06T07:30:57.855Z,20.38
2022-08-06T07:34:01.028Z,20.41
2022-08-06T07:36:21.808Z,20.46
2022-08-06T07:38:59.822Z,20.57
2022-08-06T07:41:31.505Z,20.42
2022-08-06T07:44:18.660Z,20.47
2022-08-06T07:46:52.647Z,20.66
2022-08-06T07:49:31.776Z,20.82
2022-08-06T07:52:26.673Z,20.93
2022-08-06T07:54:55.296Z,20.67
2022-08-06T07:57:25.549Z,20.58
2022-08-06T07:59:55.618Z,20.66
2022-08-06T08:02:29.768Z,20.48
2022-08-06T08:05:16.695Z,20.23
2022-08-06T08:07:57.409Z,20.25
2022-08-06T08:10:29.080Z,20.20
2022-08-06T08:12:57.914Z,20.14
2022-08-06T08:15:32.382Z,20.15
2022-08-06T08:18:01.420Z,20.19
2022-08-06T08:20:34.433Z,20.42
2022-08-06T08:23:33.229Z,20.04
2022-08-06T08:25:58.673Z,19.98
2022-08-06T08:28:25.496Z,19.94
2022-08-06T08:30:52.102Z,20.19
2022-08-06T08:33:20.638Z,20.08
2022-08-06T08:35:59.870Z,20.13
2022-08-06T08:38:32.306Z,19.99
2022-08-06T08:41:02.337Z,20.13
2022-08-06T08:43:58.971Z,20.20
2022-08-06T08:46:30.867Z,20.75
2022-08-06T08:49:01.361Z,20.68
2022-08-06T08:51:28.907Z,20.79
2022-08-06T08:53:59.374Z,20.87
2022-08-06T08:57:07.945Z,20.78
2022-08-06T08:59:59.302Z,20.54
2022-08-06T09:02:01.020Z,20.32
2022-08-06T09:04:28.214Z,20.04
2022-08-06T09:06:56.360Z,20.21
2022-08-06T09:09:30.336Z,20.03
2022-08-06T09:12:04.706Z,19.92
2022-08-06T09:14:34.216Z,20.01
2022-08-06T09:17:10.503Z,20.01
2022-08-06T09:19:41.760Z,19.92
2022-08-06T09:22:09.643Z,19.82
2022-08-06T09:24:39.367Z,19.71
2022-08-06T09:27:32.620Z,19.42
2022-08-06T09:30:04.034Z,19.61
2022-08-06T09:32:56.792Z,19.33
2022-08-06T09:35:43.678Z,19.40
2022-08-06T09:38:12.727Z,19.40
2022-08-06T09:41:14.901Z,19.44
2022-08-06T09:44:03.427Z,19.31
2022-08-06T09:46:56.510Z,19.38
2022-08-06T09:49:48.817Z,19.22
2022-08-06T09:52:18.029Z,19.39
2022-08-06T09:54:53.468Z,19.30
2022-08-06T09:57:23.755Z,19.40
2022-08-06T09:59:51.693Z,19.40
2022-08-06T10:02:24.052Z,19.35
2022-08-06T10:05:17.610Z,19.40
2022-08-06T10:07:47.135Z,19.37
2022-08-06T10:10:33.960Z,19.45
2022-08-06T10:13:27.485Z,19.23
2022-08-06T10:16:28.942Z,19.36
2022-08-06T10:18:59.942Z,19.38
2022-08-06T10:21:42.202Z,19.40
2022-08-06T10:24:25.270Z,19.41
2022-08-06T10:26:54.013Z,19.47
2022-08-06T10:29:22.926Z,19.63
2022-08-06T10:40:07.804Z,19.50
2022-08-06T10:42:21.946Z,19.41
2022-08-06T10:44:51.082Z,19.48
2022-08-06T10:48:58.083Z,19.32
2022-08-06T10:57:59.289Z,19.05
2022-08-06T11:00:30.179Z,19.20
2022-08-06T11:03:58.851Z,19.34
2022-08-06T11:10:31.678Z,19.31
2022-08-06T11:56:25.478Z,19.60
2022-08-06T12:06:31.808Z,19.49
2022-08-06T12:09:23.246Z,19.59
2022-08-06T12:12:33.032Z,19.66
2022-08-06T12:16:00.351Z,19.50
2022-08-06T12:18:19.236Z,19.63
2022-08-06T12:20:49.456Z,19.79
2022-08-06T12:23:54.498Z,20.31
2022-08-06T12:26:11.657Z,20.55
2022-08-06T12:28:38.626Z,20.85
2022-08-06T12:31:34.718Z,21.00
2022-08-06T12:33:52.457Z,20.71
2022-08-06T12:36:32.523Z,20.41
2022-08-06T12:39:04.270Z,20.28
2022-08-06T12:41:46.627Z,20.11
2022-08-06T12:44:20.061Z,20.18
2022-08-06T12:46:47.016Z,20.11
2022-08-06T12:49:18.298Z,20.06
2022-08-06T12:54:31.801Z,20.20
2022-08-06T12:56:58.585Z,19.95
2022-08-06T12:59:25.279Z,20.18
2022-08-06T13:02:11.676Z,20.23
2022-08-06T13:04:50.523Z,20.54
2022-08-06T13:07:20.489Z,20.76
2022-08-06T13:10:16.801Z,20.33
2022-08-06T13:14:02.171Z,20.03
2022-08-06T13:15:25.647Z,20.27
2022-08-06T13:18:40.822Z,20.40
2022-08-06T13:21:02.902Z,20.21
2022-08-06T13:23:35.541Z,19.92
2022-08-06T13:26:25.986Z,19.91
2022-08-06T13:30:31.380Z,19.93
2022-08-06T13:32:03.890Z,19.94
2022-08-06T13:34:59.206Z,19.73
2022-08-06T13:37:55.706Z,19.97
2022-08-06T13:40:46.617Z,20.20
2022-08-06T13:43:39.780Z,20.24
2022-08-06T13:46:17.424Z,20.54
2022-08-06T13:48:52.510Z,20.54
2022-08-06T13:51:22.100Z,20.49
2022-08-06T13:53:57.049Z,20.44
2022-08-06T13:56:29.638Z,20.21
2022-08-06T13:58:59.800Z,20.21
2022-08-06T14:01:34.796Z,20.24
2022-08-06T14:04:11.904Z,20.37
2022-08-06T14:06:41.438Z,20.33
2022-08-06T14:09:19.567Z,20.35
2022-08-06T14:12:01.993Z,20.27
2022-08-06T14:14:30.929Z,20.37
2022-08-06T14:17:00.106Z,20.52
2022-08-06T14:20:15.543Z,20.56
2022-08-06T14:22:14.573Z,20.41
2022-08-06T14:24:53.060Z,20.27
2022-08-06T14:27:24.256Z,20.44
2022-08-06T14:30:25.321Z,20.20
2022-08-06T14:32:38.860Z,20.28
2022-08-06T14:35:07.808Z,20.40
2022-08-06T14:37:49.860Z,20.27
2022-08-06T14:40:59.485Z,20.48
2022-08-06T14:43:54.597Z,20.66
2022-08-06T14:46:26.112Z,20.73
2022-08-06T14:48:57.111Z,20.84
2022-08-06T14:51:24.719Z,20.77
2022-08-06T14:54:11.246Z,20.65
2022-08-06T14:56:40.759Z,20.67
2022-08-06T14:59:13.282Z,20.55
2022-08-06T15:01:40.398Z,20.45
2022-08-06T15:04:10.903Z,20.39
2022-08-06T15:06:53.997Z,20.44
2022-08-06T15:10:04.114Z,20.25
2022-08-06T15:12:11.610Z,20.08
2022-08-06T15:14:43.909Z,19.89
2022-08-06T15:17:30.502Z,19.85
2022-08-06T15:20:04.949Z,19.87
2022-08-06T15:22:36.272Z,19.78
2022-08-06T15:25:09.488Z,19.62
2022-08-06T15:27:36.489Z,19.63
2022-08-06T15:30:04.424Z,19.75
2022-08-06T15:32:32.313Z,19.58
2022-08-06T15:34:58.816Z,19.57
2022-08-06T15:37:53.310Z,19.59
2022-08-06T15:40:12.820Z,19.63
2022-08-06T15:42:41.747Z,19.59
2022-08-06T15:45:45.360Z,19.60
2022-08-06T15:47:59.774Z,19.55
2022-08-06T15:50:33.274Z,19.70
2022-08-06T15:53:22.771Z,19.70
2022-08-06T15:55:50.510Z,19.52
2022-08-06T15:58:28.740Z,19.79
2022-08-06T16:01:04.184Z,20.07
2022-08-06T16:03:56.279Z,20.23
2022-08-06T16:06:25.958Z,20.20
2022-08-06T16:09:00.198Z,19.93
2022-08-06T16:11:27.005Z,19.55
2022-08-06T16:13:55.152Z,19.48
2022-08-06T16:16:27.477Z,19.49
2022-08-06T16:19:03.744Z,19.55
2022-08-06T16:21:34.080Z,19.82
2022-08-06T16:24:03.542Z,19.58
2022-08-06T16:26:42.732Z,19.44
2022-08-06T16:29:15.646Z,19.39
2022-08-06T16:31:48.537Z,19.29
2022-08-06T16:34:25.477Z,19.56
2022-08-06T16:36:59.630Z,19.70
2022-08-06T16:39:35.611Z,19.87
2022-08-06T16:42:05.638Z,19.75
2022-08-06T16:44:34.724Z,19.76
2022-08-06T16:47:19.190Z,19.49
2022-08-06T16:50:17.646Z,19.53
2022-08-06T16:52:41.683Z,19.72
2022-08-06T16:55:11.954Z,19.49
2022-08-06T16:57:39.807Z,19.68
2022-08-06T17:00:10.256Z,19.11
2022-08-06T17:02:37.283Z,19.40
2022-08-06T17:05:17.230Z,19.56
2022-08-06T17:07:53.785Z,19.41
2022-08-06T17:10:25.700Z,19.51
2022-08-06T17:12:57.996Z,19.17
2022-08-06T17:15:35.991Z,19.20
2022-08-06T17:18:04.463Z,19.11
2022-08-06T17:20:31.880Z,19.23
2022-08-06T17:23:00.021Z,19.01
2022-08-06T17:25:50.715Z,19.10
2022-08-06T17:28:15.388Z,18.77
2022-08-06T17:30:43.225Z,18.88
2022-08-06T17:33:10.698Z,18.91
2022-08-06T17:36:29.495Z,18.99
2022-08-06T17:38:25.106Z,18.91
2022-08-06T17:40:54.424Z,19.01
2022-08-06T17:43:54.913Z,18.95
2022-08-06T17:46:26.390Z,18.81
2022-08-06T17:48:57.642Z,18.85
2022-08-06T17:51:33.103Z,18.81
2022-08-06T17:54:44.348Z,18.67
2022-08-06T17:56:49.747Z,18.74
2022-08-06T17:59:21.594Z,18.76
2022-08-06T18:01:50.562Z,18.51
2022-08-06T18:04:30.210Z,18.63
2022-08-06T18:07:10.868Z,18.42
2022-08-06T18:10:10.717Z,18.35
2022-08-06T18:12:32.096Z,18.19
2022-08-06T18:15:00.163Z,18.01
2022-08-06T18:17:59.286Z,18.15
2022-08-06T18:20:16.395Z,18.06
2022-08-06T18:22:45.235Z,18.10
2022-08-06T18:25:18.724Z,18.10
2022-08-06T18:27:53.396Z,18.21
2022-08-06T18:30:46.956Z,18.11
2022-08-06T18:33:15.034Z,18.02
2022-08-06T18:35:54.802Z,18.07
2022-08-06T18:38:31.844Z,18.18
2022-08-06T18:41:06.138Z,18.04
2022-08-06T18:43:48.792Z,18.04
2022-08-06T18:46:56.207Z,18.06
2022-08-06T18:49:15.467Z,17.94
2022-08-06T18:51:42.635Z,17.95
2022-08-06T18:54:14.097Z,17.83
2022-08-06T18:56:48.855Z,17.80
2022-08-06T18:59:28.063Z,17.84
2022-08-06T19:01:58.990Z,17.90
2022-08-06T19:04:29.015Z,17.88
2022-08-06T19:07:00.283Z,17.89
2022-08-06T19:09:33.755Z,17.91
2022-08-06T19:12:12.073Z,17.86
2022-08-06T19:14:44.478Z,17.82
2022-08-06T19:17:22.543Z,17.95
2022-08-06T19:20:18.694Z,17.90
2022-08-06T19:22:54.032Z,17.79
2022-08-06T19:25:41.771Z,17.87
2022-08-06T19:28:35.079Z,17.84
2022-08-06T19:31:06.325Z,17.73
2022-08-06T19:33:34.978Z,17.74
2022-08-06T19:36:07.231Z,17.78
2022-08-06T19:38:40.630Z,17.70
2022-08-06T19:41:09.930Z,17.88
2022-08-06T19:44:28.026Z,17.76
2022-08-06T19:46:34.826Z,17.77
2022-08-06T19:49:06.138Z,17.63
2022-08-06T19:52:03.931Z,17.82
2022-08-06T19:54:27.858Z,17.73
2022-08-06T19:57:02.969Z,17.76
2022-08-06T20:00:55.325Z,17.76
2022-08-06T20:02:26.622Z,17.82
2022-08-06T20:04:56.483Z,17.77
2022-08-06T20:07:25.952Z,17.72
2022-08-06T20:09:59.722Z,17.72
2022-08-06T20:12:33.720Z,17.74
2022-08-06T20:15:12.482Z,17.71
2022-08-06T20:17:48.918Z,17.66
2022-08-06T20:20:28.537Z,17.70
2022-08-06T20:23:00.004Z,17.68
2022-08-06T20:25:27.663Z,17.67
2022-08-06T20:29:08.232Z,17.68
2022-08-06T20:30:49.444Z,17.65
2022-08-06T20:33:23.854Z,17.63
2022-08-06T20:35:57.956Z,17.57
2022-08-06T20:38:40.655Z,17.62
2022-08-06T20:41:59.131Z,17.55
2022-08-06T20:44:06.718Z,17.54
2022-08-06T20:49:47.701Z,17.56
2022-08-06T20:52:17.467Z,17.57
2022-08-06T20:54:51.340Z,17.49
2022-08-06T20:57:18.509Z,17.55
2022-08-06T20:59:50.893Z,17.53
2022-08-06T21:02:25.843Z,17.50
2022-08-06T21:05:15.804Z,17.57
2022-08-06T21:07:57.702Z,17.63
2022-08-06T21:10:30.619Z,17.66
2022-08-06T21:13:02.777Z,17.63
2022-08-06T21:15:54.804Z,17.71
2022-08-06T21:18:24.830Z,17.66
2022-08-06T21:20:53.782Z,17.51
2022-08-06T21:23:41.660Z,17.45
2022-08-06T21:26:11.613Z,17.47
2022-08-06T21:28:42.427Z,17.44
2022-08-06T21:31:10.756Z,17.54
2022-08-06T21:33:42.488Z,17.47
2022-08-06T21:36:19.343Z,17.42
2022-08-06T21:38:46.381Z,17.36
2022-08-06T21:41:56.082Z,17.26
2022-08-06T21:44:18.065Z,17.23
2022-08-06T21:46:57.792Z,17.31
2022-08-06T21:50:01.052Z,17.35
2022-08-06T21:52:16.198Z,17.35
2022-08-06T21:54:53.099Z,17.28
2022-08-06T21:57:21.119Z,17.28
2022-08-06T21:59:53.288Z,17.20
2022-08-06T22:02:26.206Z,17.29
2022-08-06T22:05:00.066Z,17.23
2022-08-06T22:08:06.595Z,17.25
2022-08-06T22:10:15.592Z,17.17
2022-08-06T22:13:13.181Z,17.16
2022-08-06T22:15:46.061Z,17.13
2022-08-06T22:18:16.976Z,17.15
2022-08-06T22:20:45.594Z,17.13
2022-08-06T22:23:12.579Z,17.14
2022-08-06T22:25:39.652Z,17.20
2022-08-06T22:28:08.823Z,17.22
2022-08-06T22:30:37.545Z,17.19
2022-08-06T22:33:17.826Z,17.23
2022-08-06T22:35:57.173Z,17.17
2022-08-06T22:38:26.060Z,17.23
2022-08-06T22:40:53.742Z,17.13
2022-08-06T22:43:29.444Z,17.12
2022-08-06T22:46:04.754Z,17.15
2022-08-06T22:48:36.427Z,17.17
2022-08-06T22:51:05.976Z,17.06
2022-08-06T22:54:29.629Z,17.06
2022-08-06T22:56:28.391Z,17.02
2022-08-06T22:59:06.147Z,16.99
2022-08-06T23:02:07.780Z,16.91
2022-08-06T23:04:31.014Z,16.94
2022-08-06T23:06:57.805Z,16.99
2022-08-06T23:09:24.538Z,16.90
2022-08-06T23:11:59.151Z,16.90
2022-08-06T23:14:32.308Z,16.94
2022-08-06T23:17:00.950Z,16.93
2022-08-06T23:19:29.911Z,16.92
2022-08-06T23:22:04.787Z,16.90
2022-08-06T23:24:36.811Z,16.86
2022-08-06T23:27:16.683Z,16.88
2022-08-06T23:30:09.658Z,16.84
2022-08-06T23:32:31.201Z,16.90
2022-08-06T23:34:59.055Z,16.81
2022-08-06T23:37:31.834Z,16.85
2022-08-06T23:40:12.422Z,16.83
2022-08-06T23:42:43.000Z,16.82
2022-08-06T23:45:10.042Z,16.88
2022-08-06T23:48:03.176Z,16.85
2022-08-06T23:50:26.076Z,16.80
2022-08-06T23:53:05.893Z,16.84
2022-08-06T23:55:37.226Z,16.77
2022-08-06T23:58:06.035Z,16.67
